createdAt,value
2022-09-18T13:18:02.612Z,61.2
2022-09-18T13:23:02.348Z,61.2
2022-09-18T13:28:02.371Z,61.2
2022-09-18T13:33:02.373Z,61.2
2022-09-18T13:38:02.499Z,61.2
2022-09-18T13:43:02.403Z,61.2
2022-09-18T13:50:38.564Z,38.1
2022-09-18T14:01:59.241Z,34.7
2022-09-18T14:06:59.045Z,34
2022-09-18T14:11:59.067Z,33.8
2022-09-18T14:17:00.672Z,34.2
2022-09-18T14:21:59.203Z,34.6
2022-09-18T14:31:10.058Z,34.8
2022-09-18T14:38:45.878Z,34.7
2022-09-18T14:43:45.790Z,34.7
2022-09-18T15:35:04.850Z,33.6
2022-09-18T15:52:51.769Z,33.6
2022-09-18T15:57:51.639Z,33.7
2022-09-18T16:02:51.594Z,34
2022-09-18T16:07:51.581Z,34.5
2022-09-18T16:12:51.647Z,35.2
2022-09-18T16:17:51.517Z,35.7
2022-09-18T16:22:51.526Z,36.2
2022-09-18T16:27:51.530Z,37
2022-09-18T16:32:51.671Z,37.5
2022-09-18T16:37:51.534Z,39.2
2022-09-18T16:42:51.513Z,39.6
2022-09-18T16:47:51.551Z,40.1
2022-09-18T16:52:51.647Z,40.4
2022-09-18T16:57:51.559Z,40.6
2022-09-18T17:02:51.639Z,41.6
2022-09-18T17:07:51.537Z,42.2
2022-09-18T17:12:51.648Z,42
2022-09-18T17:17:51.877Z,42.2
2022-09-18T17:22:51.528Z,41.9
2022-09-18T17:27:51.531Z,41.9
2022-09-18T17:32:51.652Z,42.4
2022-09-18T17:37:51.561Z,43
2022-09-18T17:42:51.526Z,43.5
2022-09-18T17:47:51.555Z,43.5
2022-09-18T17:52:51.647Z,44.8
2022-09-18T17:57:51.566Z,44.9
2022-09-18T18:02:51.532Z,45.7
2022-09-18T18:07:51.500Z,45.9
2022-09-18T18:12:51.653Z,46
2022-09-18T18:17:51.547Z,46.5
2022-09-18T18:22:51.548Z,47.2
2022-09-18T18:27:51.541Z,47.6
2022-09-18T18:32:53.776Z,47.9
2022-09-18T18:37:51.526Z,47.9
2022-09-18T18:42:51.525Z,48.3
2022-09-18T18:47:51.582Z,48.6
2022-09-18T18:52:51.649Z,48.6
2022-09-18T18:57:51.586Z,48.5
2022-09-18T19:02:51.562Z,48.6
2022-09-18T19:07:51.562Z,48.6
2022-09-18T19:12:51.565Z,48.6
2022-09-18T19:17:51.561Z,48.8
2022-09-18T19:22:51.547Z,49
2022-09-18T19:27:51.556Z,49.1
2022-09-18T19:32:51.679Z,49.3
2022-09-18T19:37:51.613Z,49.5
2022-09-18T19:42:51.664Z,49.7
2022-09-18T19:47:51.571Z,49.7
2022-09-18T19:52:51.677Z,49.9
2022-09-18T19:57:51.574Z,49.7
2022-09-18T20:02:51.554Z,50
2022-09-18T20:07:51.569Z,50.1
2022-09-18T20:12:51.566Z,50.3
2022-09-18T20:17:51.583Z,50.5
2022-09-18T20:22:51.556Z,50.7
2022-09-18T20:27:51.557Z,51
2022-09-18T20:32:51.693Z,51
2022-09-18T20:37:51.619Z,51.1
2022-09-18T20:42:51.553Z,51.3
2022-09-18T20:47:51.615Z,51.5
2022-09-18T20:52:51.778Z,51.4
2022-09-18T20:57:51.565Z,51.6
2022-09-18T21:02:51.561Z,51.6
2022-09-18T21:07:51.577Z,51.8
2022-09-18T21:12:51.599Z,52
2022-09-18T21:17:51.623Z,52
2022-09-18T21:22:51.570Z,52
2022-09-18T21:27:51.574Z,52.1
2022-09-18T21:32:55.454Z,52.1
2022-09-18T21:37:51.594Z,52.5
2022-09-18T21:42:51.615Z,52.4
2022-09-18T21:47:51.655Z,52.4
2022-09-18T21:52:51.750Z,52.7
2022-09-18T21:57:51.597Z,52.7
2022-09-18T22:02:51.583Z,52.8
2022-09-18T22:07:51.634Z,52.8
2022-09-18T22:12:51.615Z,53.1
2022-09-18T22:17:51.597Z,53
2022-09-18T22:22:51.581Z,53
2022-09-18T22:27:51.620Z,53.1
2022-09-18T22:32:51.615Z,53.2
2022-09-18T22:37:51.622Z,53.2
2022-09-18T22:42:51.617Z,53.4
2022-09-18T22:47:51.655Z,53.3
2022-09-18T22:52:51.741Z,53.6
2022-09-18T22:57:51.633Z,53.6
2022-09-18T23:02:51.619Z,53.5
2022-09-18T23:07:51.619Z,53.5
2022-09-18T23:12:51.737Z,53.4
2022-09-18T23:17:51.622Z,53.6
2022-09-18T23:22:51.772Z,53.6
2022-09-18T23:27:51.621Z,53.7
2022-09-18T23:32:51.643Z,53.4
2022-09-18T23:37:51.627Z,53.2
2022-09-18T23:42:51.613Z,53.4
2022-09-18T23:47:51.661Z,53.3
2022-09-18T23:52:51.768Z,53.2
2022-09-18T23:57:51.646Z,53
